Zerdevka, Russia
Current Conditions -  °F | °C
As of 7:30 PM on Friday 28 Nov 2014 (Local Time) from UUOO Reporting Station
Clear Clear  
Wind Chill: 18°   Ceiling: Unl
Heat Index: 27°   Visibility: 6mi
Dew Point:   Wind: 9mph
Humidity: 34%   Direction: 90°E
Pressure: 30.48"   Gusts: 16mph
Location:  51.87°N, 41.46°E
Report Text: UUOO 281630Z 09004G07MPS CAVOK M03/M17 Q1032 NOSIG RMK12090070
Loading
Personal Weather Stations






























Interactive Weather Map New forecast layout! Learn more

10-Day Weather Forecast

Advertisements
Track Severe Weather on mobile